createdAt,value
2019-04-25T00:01:56.640Z,2.40
2019-04-25T00:06:58.133Z,2.30
2019-04-25T00:11:59.751Z,2.17
2019-04-25T00:17:01.716Z,3.77
2019-04-25T00:22:03.272Z,2.37
2019-04-25T00:27:04.628Z,2.70
2019-04-25T00:32:06.003Z,2.70
2019-04-25T00:37:07.542Z,2.80
2019-04-25T00:42:08.901Z,2.40
2019-04-25T00:47:11.778Z,2.70
2019-04-25T00:52:13.115Z,2.93
2019-04-25T00:57:14.549Z,3.50
2019-04-25T01:02:16.068Z,3.00
2019-04-25T01:07:17.398Z,3.13
2019-04-25T01:12:21.504Z,3.00
2019-04-25T01:17:23.025Z,3.70
2019-04-25T01:22:24.325Z,3.30
2019-04-25T01:27:25.659Z,3.60
2019-04-25T01:32:27.031Z,3.17
2019-04-25T01:37:28.315Z,3.10
2019-04-25T01:42:29.952Z,3.30
2019-04-25T01:47:31.683Z,3.50
2019-04-25T01:52:33.445Z,3.60
2019-04-25T01:57:35.044Z,3.17
2019-04-25T02:02:36.653Z,3.00
2019-04-25T02:07:38.129Z,3.70
2019-04-25T02:12:40.452Z,3.63
2019-04-25T02:17:41.874Z,3.93
2019-04-25T02:22:44.176Z,3.47
2019-04-25T02:27:45.635Z,3.53
2019-04-25T02:32:46.907Z,3.30
2019-04-25T02:37:48.349Z,3.90
2019-04-25T02:42:49.670Z,3.07
2019-04-25T02:47:51.243Z,3.50
2019-04-25T02:52:55.595Z,3.80
2019-04-25T02:57:57.035Z,2.97
2019-04-25T03:03:00.979Z,3.40
2019-04-25T03:08:07.980Z,3.33
2019-04-25T03:13:10.227Z,3.27
2019-04-25T03:18:12.484Z,3.20
2019-04-25T03:23:14.494Z,3.93
2019-04-25T03:28:16.133Z,5.03
2019-04-25T03:33:19.637Z,5.30
2019-04-25T03:38:21.086Z,4.67
2019-04-25T03:43:23.261Z,4.03
2019-04-25T03:48:25.236Z,3.90
2019-04-25T03:53:26.608Z,4.10
2019-04-25T03:58:28.210Z,3.93
2019-04-25T04:03:29.560Z,3.70
2019-04-25T04:08:30.864Z,3.20
2019-04-25T04:13:34.131Z,3.77
2019-04-25T04:18:35.374Z,3.57
2019-04-25T04:23:36.603Z,4.10
2019-04-25T04:28:38.232Z,3.20
2019-04-25T04:33:39.540Z,3.70
2019-04-25T04:38:41.264Z,3.13
2019-04-25T04:43:44.116Z,4.03
2019-04-25T04:48:45.709Z,3.47
2019-04-25T04:53:46.931Z,3.20
2019-04-25T04:58:48.432Z,3.57
2019-04-25T05:03:49.879Z,3.20
2019-04-25T05:08:51.410Z,2.80
2019-04-25T05:13:54.124Z,3.30
2019-04-25T05:18:55.680Z,3.37
2019-04-25T05:23:57.254Z,2.70
2019-04-25T05:28:58.972Z,2.67
2019-04-25T05:34:00.343Z,2.40
2019-04-25T05:39:01.792Z,2.80
2019-04-25T05:44:04.495Z,2.50
2019-04-25T05:49:06.218Z,2.40
2019-04-25T05:54:07.788Z,2.77
2019-04-25T05:59:09.054Z,2.20
2019-04-25T06:04:10.716Z,2.87
2019-04-25T06:09:11.964Z,1.90
2019-04-25T06:14:13.940Z,2.20
2019-04-25T06:19:18.497Z,2.10
2019-04-25T06:24:19.153Z,2.30
2019-04-25T06:29:21.823Z,2.20
2019-04-25T06:34:25.403Z,2.03
2019-04-25T06:39:27.946Z,2.13
2019-04-25T06:44:29.439Z,2.30
2019-04-25T06:49:31.426Z,2.50
2019-04-25T06:54:33.505Z,2.60
2019-04-25T06:59:40.979Z,2.70
2019-04-25T07:04:39.645Z,2.30
2019-04-25T07:09:40.923Z,2.73
2019-04-25T07:14:43.878Z,3.00
2019-04-25T07:19:45.418Z,1.87
2019-04-25T07:24:46.802Z,2.80
2019-04-25T07:29:48.170Z,2.50
2019-04-25T07:34:49.660Z,2.33
2019-04-25T07:39:51.154Z,2.37
2019-04-25T07:44:54.925Z,2.13
2019-04-25T07:49:55.985Z,2.80
2019-04-25T07:54:57.428Z,2.20
2019-04-25T07:59:59.232Z,2.37
2019-04-25T08:05:00.564Z,2.00
2019-04-25T08:10:01.990Z,2.53
2019-04-25T08:15:04.150Z,2.27
2019-04-25T08:20:06.090Z,1.90
2019-04-25T08:25:07.574Z,1.80
2019-04-25T08:30:09.041Z,2.05
2019-04-25T08:35:10.543Z,2.50
2019-04-25T08:40:13.588Z,1.92
2019-04-25T08:45:14.964Z,2.10
2019-04-25T08:50:26.982Z,1.80
2019-04-25T08:55:20.356Z,1.82
2019-04-25T09:00:21.866Z,1.80
2019-04-25T09:05:24.179Z,1.85
2019-04-25T09:10:25.602Z,1.75
2019-04-25T09:15:26.899Z,2.17
2019-04-25T09:20:28.370Z,1.50
2019-04-25T09:25:29.887Z,1.62
2019-04-25T09:30:31.374Z,1.40
2019-04-25T09:35:33.522Z,2.00
2019-04-25T09:40:35.935Z,1.20
2019-04-25T09:45:37.686Z,1.37
2019-04-25T09:50:39.689Z,1.55
2019-04-25T09:55:41.725Z,1.57
2019-04-25T10:00:44.712Z,1.70
2019-04-25T10:05:46.855Z,1.20
2019-04-25T10:10:48.280Z,1.50
2019-04-25T10:16:08.890Z,1.75
2019-04-25T10:21:10.366Z,1.25
2019-04-25T10:26:12.132Z,1.70
2019-04-25T10:31:13.835Z,1.80
2019-04-25T10:36:15.186Z,1.60
2019-04-25T10:41:16.537Z,1.95
2019-04-25T10:46:18.059Z,1.67
2019-04-25T10:51:19.473Z,1.40
2019-04-25T10:56:20.713Z,2.33
2019-04-25T11:01:22.019Z,1.60
2019-04-25T11:06:23.594Z,1.67
2019-04-25T11:11:25.055Z,1.52
2019-04-25T11:16:26.326Z,1.90
2019-04-25T11:21:27.677Z,1.80
2019-04-25T11:26:29.043Z,1.45
2019-04-25T11:31:30.644Z,1.50
2019-04-25T11:36:33.888Z,1.47
2019-04-25T11:41:35.642Z,1.52
2019-04-25T11:46:39.314Z,1.25
2019-04-25T11:51:41.800Z,1.25
2019-04-25T11:56:46.003Z,1.10
2019-04-25T12:01:47.782Z,1.80
2019-04-25T12:06:49.891Z,1.37
2019-04-25T12:11:51.167Z,1.10
2019-04-25T12:16:53.226Z,1.40
2019-04-25T12:21:56.760Z,1.30
2019-04-25T12:26:58.978Z,1.40
2019-04-25T12:32:00.474Z,1.40
2019-04-25T12:37:01.963Z,1.20
2019-04-25T12:42:04.338Z,1.50
2019-04-25T12:47:06.026Z,1.12
2019-04-25T12:52:07.517Z,1.70
2019-04-25T12:57:08.893Z,1.25
2019-04-25T13:02:10.293Z,1.42
2019-04-25T13:07:11.543Z,1.45
2019-04-25T13:12:14.465Z,1.50
2019-04-25T13:17:16.472Z,1.80
2019-04-25T13:22:17.870Z,1.52
2019-04-25T13:27:19.164Z,1.70
2019-04-25T13:32:20.533Z,1.70
2019-04-25T13:37:21.769Z,2.00
2019-04-25T13:42:23.336Z,1.90
2019-04-25T13:47:27.930Z,2.20
2019-04-25T13:52:28.898Z,2.15
2019-04-25T13:57:30.588Z,2.33
2019-04-25T14:02:31.974Z,2.15
2019-04-25T14:07:36.887Z,2.00
2019-04-25T14:12:38.130Z,1.98
2019-04-25T14:17:40.185Z,1.90
2019-04-25T14:22:43.182Z,1.82
2019-04-25T14:27:47.045Z,2.08
2019-04-25T14:32:48.272Z,2.02
2019-04-25T14:37:50.429Z,1.98
2019-04-25T14:42:51.772Z,2.02
2019-04-25T14:47:53.336Z,1.50
2019-04-25T14:52:54.585Z,2.90
2019-04-25T14:58:00.328Z,1.60
2019-04-25T15:03:01.814Z,1.27
2019-04-25T15:08:03.262Z,1.20
2019-04-25T15:13:04.679Z,1.40
2019-04-25T15:18:06.038Z,2.05
2019-04-25T15:23:07.540Z,1.55
2019-04-25T15:28:08.805Z,1.47
2019-04-25T15:33:10.190Z,1.40
2019-04-25T15:38:12.672Z,1.70
2019-04-25T15:43:17.082Z,1.50
2019-04-25T15:48:18.479Z,1.40
2019-04-25T15:53:20.788Z,1.47
2019-04-25T15:58:22.149Z,1.50
2019-04-25T16:03:23.420Z,1.40
2019-04-25T16:08:25.030Z,1.60
2019-04-25T16:13:28.157Z,1.02
2019-04-25T16:18:30.476Z,1.20
2019-04-25T16:23:32.214Z,1.30
2019-04-25T16:28:33.875Z,1.62
2019-04-25T16:33:35.658Z,1.37
2019-04-25T16:38:36.913Z,1.00
2019-04-25T16:43:39.003Z,1.10
2019-04-25T16:48:41.098Z,1.15
2019-04-25T16:53:43.737Z,1.17
2019-04-25T16:58:45.557Z,1.00
2019-04-25T17:03:46.910Z,0.65
2019-04-25T17:08:48.359Z,0.68
2019-04-25T17:13:49.633Z,1.02
2019-04-25T17:18:50.888Z,1.05
2019-04-25T17:23:52.390Z,1.02
2019-04-25T17:28:53.717Z,1.00
2019-04-25T17:33:54.976Z,0.90
2019-04-25T17:38:56.325Z,1.20
2019-04-25T17:43:57.731Z,0.98
2019-04-25T17:48:59.175Z,1.02
2019-04-25T17:54:00.651Z,1.25
2019-04-25T17:59:01.994Z,1.30
2019-04-25T18:04:03.480Z,1.20
2019-04-25T18:09:05.603Z,1.25
2019-04-25T18:14:07.140Z,1.40
2019-04-25T18:19:08.478Z,1.32
2019-04-25T18:24:09.721Z,1.37
2019-04-25T18:29:10.961Z,1.42
2019-04-25T18:34:12.333Z,1.62
2019-04-25T18:39:13.744Z,1.60
2019-04-25T18:44:15.462Z,1.70
2019-04-25T18:49:18.107Z,1.40
2019-04-25T18:54:20.625Z,1.27
2019-04-25T18:59:22.190Z,1.10
2019-04-25T19:04:23.621Z,1.10
2019-04-25T19:09:25.467Z,1.10
2019-04-25T19:14:27.374Z,1.00
2019-04-25T19:19:28.750Z,0.95
2019-04-25T19:24:30.193Z,0.98
2019-04-25T19:29:31.550Z,1.00
2019-04-25T19:34:33.549Z,0.90
2019-04-25T19:39:34.781Z,0.80
2019-04-25T19:44:36.321Z,1.00
2019-04-25T19:49:37.809Z,1.10
2019-04-25T19:54:39.166Z,0.98
2019-04-25T19:59:41.063Z,0.90
2019-04-25T20:04:43.288Z,1.20
2019-04-25T20:09:46.987Z,1.20
2019-04-25T20:14:49.196Z,1.00
2019-04-25T20:19:51.877Z,1.40
2019-04-25T20:24:54.964Z,1.33
2019-04-25T20:29:57.398Z,1.40
2019-04-25T20:34:59.239Z,1.30
2019-04-25T20:40:00.526Z,1.33
2019-04-25T20:45:02.021Z,1.27
2019-04-25T20:50:03.494Z,1.40
2019-04-25T20:55:05.342Z,1.57
2019-04-25T21:00:06.723Z,1.47
2019-04-25T21:05:08.069Z,1.60
2019-04-25T21:10:09.434Z,1.60
2019-04-25T21:15:10.686Z,1.70
2019-04-25T21:20:11.945Z,2.10
2019-04-25T21:25:13.198Z,1.80
2019-04-25T21:30:14.755Z,1.67
2019-04-25T21:35:16.301Z,2.03
2019-04-25T21:40:17.635Z,1.90
2019-04-25T21:45:19.202Z,2.00
2019-04-25T21:50:20.632Z,1.80
2019-04-25T21:55:22.084Z,2.20
2019-04-25T22:00:23.743Z,2.00
2019-04-25T22:05:25.450Z,2.17
2019-04-25T22:10:27.066Z,1.83
2019-04-25T22:15:28.292Z,2.10
2019-04-25T22:20:30.273Z,1.57
2019-04-25T22:25:31.674Z,1.90
2019-04-25T22:30:33.393Z,2.13
2019-04-25T22:35:36.353Z,2.10
2019-04-25T22:40:38.524Z,2.10
2019-04-25T22:45:39.961Z,2.00
2019-04-25T22:50:41.301Z,2.00
2019-04-25T22:55:42.683Z,2.43
2019-04-25T23:00:44.059Z,2.20
2019-04-25T23:05:45.399Z,2.10
2019-04-25T23:10:47.290Z,2.10
2019-04-25T23:15:48.506Z,4.83
2019-04-25T23:20:50.396Z,2.13
2019-04-25T23:25:52.097Z,2.43
2019-04-25T23:30:53.988Z,2.47
2019-04-25T23:35:55.218Z,2.23
2019-04-25T23:40:56.463Z,2.33
2019-04-25T23:45:58.849Z,2.33
2019-04-25T23:51:00.725Z,2.60
2019-04-25T23:56:01.953Z,2.77
